Latest Weather Observations for North Head

IDN60801

Issued at 10:35 am EST Thursday 17 April 2014 (issued every 30 minutes, with the page automatically refreshed every 10 minutes)

About weather observations | Map of weather stations | Latest weather observations for NSW | Other Formats
Station Details ID: 066197 Name: NORTH HEAD Lat: -33.82 Lon: 151.30 Height: 90.0 m
Data from the previous 72 hours. | See also: Recent months for locations in New South Wales
Date/Time
EST
Temp
°C
App
Temp
°C
Dew
Point
Rel
Hum
%
Delta-T
°C
Wind Press
QNH
hPa
Press
MSL
hPa
Rain
since 9 am
mm
Dir
 
Spd
km/h
Gust
km/h
Spd
kts
Gust
kts
17/10:30am - - - - - S 22 30 12 16 - - -
17/10:00am - - - - - WSW 13 19 7 10 - - -
17/09:30am - - - - - WSW 13 19 7 10 - - -
17/09:00am - - - - - W 11 15 6 8 - - -
17/08:30am - - - - - W 13 20 7 11 - - -
17/08:00am - - - - - W 17 22 9 12 - - -
17/07:30am - - - - - W 15 20 8 11 - - -
17/07:00am - - - - - W 13 19 7 10 - - -
17/06:30am - - - - - W 13 19 7 10 - - -
17/06:00am - - - - - W 17 22 9 12 - - -
17/05:30am - - - - - W 15 22 8 12 - - -
17/05:00am - - - - - W 13 19 7 10 - - -
17/04:30am - - - - - W 13 20 7 11 - - -
17/04:00am - - - - - W 15 22 8 12 - - -
17/03:30am - - - - - W 15 24 8 13 - - -
17/03:00am - - - - - W 17 22 9 12 - - -
17/02:30am - - - - - WNW 17 20 9 11 - - -
17/02:00am - - - - - WNW 15 20 8 11 - - -
17/01:30am - - - - - WNW 13 17 7 9 - - -
17/01:00am - - - - - W 13 19 7 10 - - -
17/12:30am - - - - - W 15 20 8 11 - - -
17/12:00am - - - - - W 13 19 7 10 - - -
 
Date/Time
EST
Temp
°C
App
Temp
°C
Dew
Point
Rel
Hum
%
Delta-T
°C
Wind Press
QNH
hPa
Press
MSL
hPa
Rain
since 9 am
mm
Dir
 
Spd
km/h
Gust
km/h
Spd
kts
Gust
kts
16/11:30pm - - - - - W 11 17 6 9 - - -
16/11:00pm - - - - - W 11 15 6 8 - - -
16/10:30pm - - - - - WSW 11 19 6 10 - - -
16/10:00pm - - - - - WSW 13 19 7 10 - - -
16/09:30pm - - - - - W 11 17 6 9 - - -
16/09:00pm - - - - - W 11 17 6 9 - - -
16/08:30pm - - - - - SSW 13 22 7 12 - - -
16/08:00pm - - - - - SSW 15 28 8 15 - - -
16/07:30pm - - - - - S 19 28 10 15 - - -
16/07:00pm - - - - - SSW 15 24 8 13 - - -
16/06:30pm - - - - - S 19 32 10 17 - - -
16/06:00pm - - - - - S 17 32 9 17 - - -
16/05:30pm - - - - - S 20 30 11 16 - - -
16/05:00pm - - - - - S 24 37 13 20 - - -
16/04:30pm - - - - - S 24 39 13 21 - - -
16/04:00pm - - - - - S 22 35 12 19 - - -
16/03:30pm - - - - - S 24 33 13 18 - - -
16/03:00pm - - - - - S 17 32 9 17 - - -
16/02:30pm - - - - - S 20 33 11 18 - - -
16/02:00pm - - - - - S 22 37 12 20 - - -
16/01:30pm - - - - - S 22 35 12 19 - - -
16/01:00pm - - - - - S 19 33 10 18 - - -
16/12:30pm - - - - - S 20 32 11 17 - - -
16/12:00pm - - - - - SSW 19 35 10 19 - - -
16/11:30am - - - - - SSW 20 30 11 16 - - -
16/11:00am - - - - - SSW 17 30 9 16 - - -
16/10:30am - - - - - SSW 19 30 10 16 - - -
16/10:00am - - - - - SW 19 30 10 16 - - -
16/09:30am - - - - - WSW 15 24 8 13 - - -
16/09:00am - - - - - WSW 15 24 8 13 - - -
16/08:30am - - - - - W 13 19 7 10 - - -
16/08:00am - - - - - WSW 15 22 8 12 - - -
16/07:30am - - - - - W 13 19 7 10 - - -
16/07:00am - - - - - W 15 22 8 12 - - -
16/06:30am - - - - - W 15 22 8 12 - - -
16/06:00am - - - - - W 15 22 8 12 - - -
16/05:30am - - - - - WSW 13 22 7 12 - - -
16/05:00am - - - - - WSW 15 22 8 12 - - -
16/04:30am - - - - - WSW 17 24 9 13 - - -
16/04:00am - - - - - WSW 15 22 8 12 - - -
16/03:30am - - - - - WSW 17 28 9 15 - - -
16/03:00am - - - - - WSW 19 26 10 14 - - -
16/02:30am - - - - - SW 19 33 10 18 - - -
16/02:00am - - - - - WSW 17 28 9 15 - - -
16/01:30am - - - - - SW 15 22 8 12 - - -
16/01:00am - - - - - SW 17 26 9 14 - - -
16/12:30am - - - - - SW 17 24 9 13 - - -
16/12:00am - - - - - WSW 15 26 8 14 - - -
 
Date/Time
EST
Temp
°C
App
Temp
°C
Dew
Point
Rel
Hum
%
Delta-T
°C
Wind Press
QNH
hPa
Press
MSL
hPa
Rain
since 9 am
mm
Dir
 
Spd
km/h
Gust
km/h
Spd
kts
Gust
kts
15/11:30pm - - - - - SW 19 30 10 16 - - -
15/11:00pm - - - - - SW 20 30 11 16 - - -
15/10:30pm - - - - - WSW 17 30 9 16 - - -
15/10:00pm - - - - - S 19 35 10 19 - - -
15/09:30pm - - - - - S 22 33 12 18 - - -
15/09:00pm - - - - - S 30 50 16 27 - - -
15/08:38pm - - - - - S 30 54 16 29 - - -
15/08:30pm - - - - - S 28 44 15 24 - - -
15/08:00pm - - - - - S 24 43 13 23 - - -
15/07:30pm - - - - - S 19 35 10 19 - - -
15/07:00pm - - - - - SSW 15 24 8 13 - - -
15/06:30pm - - - - - SSW 22 37 12 20 - - -
15/06:00pm - - - - - SSE 24 39 13 21 - - -
15/05:30pm - - - - - SSE 24 44 13 24 - - -
15/05:00pm - - - - - S 20 35 11 19 - - -
15/04:30pm - - - - - S 20 35 11 19 - - -
15/04:00pm - - - - - S 32 50 17 27 - - -
15/03:30pm - - - - - S 28 43 15 23 - - -
15/03:10pm - - - - - S 28 48 15 26 - - -
15/03:00pm - - - - - S 24 37 13 20 - - -
15/02:30pm - - - - - S 19 39 10 21 - - -
15/02:00pm - - - - - S 19 32 10 17 - - -
15/01:30pm - - - - - S 13 28 7 15 - - -
15/01:00pm - - - - - SSW 19 32 10 17 - - -
15/12:30pm - - - - - SSW 11 19 6 10 - - -
15/12:00pm - - - - - SW 17 26 9 14 - - -
15/11:30am - - - - - SSW 17 30 9 16 - - -
15/11:00am - - - - - SW 17 26 9 14 - - -
15/10:30am - - - - - WSW 15 24 8 13 - - -
15/10:00am - - - - - SW 15 24 8 13 - - -
15/09:30am - - - - - WSW 15 24 8 13 - - -
15/09:00am - - - - - W 15 22 8 12 - - -
15/08:30am - - - - - W 15 22 8 12 - - -
15/08:00am - - - - - W 13 19 7 10 - - -
15/07:30am - - - - - W 13 19 7 10 - - -
15/07:00am - - - - - W 11 17 6 9 - - -
15/06:30am - - - - - W 13 19 7 10 - - -
15/06:00am - - - - - WSW 15 22 8 12 - - -
15/05:30am - - - - - WSW 15 24 8 13 - - -
15/05:00am - - - - - W 11 19 6 10 - - -
15/04:30am - - - - - W 13 17 7 9 - - -
15/04:00am - - - - - W 13 17 7 9 - - -
15/03:30am - - - - - W 13 20 7 11 - - -
15/03:00am - - - - - W 11 17 6 9 - - -
15/02:30am - - - - - WSW 11 19 6 10 - - -
15/02:00am - - - - - S 19 28 10 15 - - -
15/01:30am - - - - - W 9 15 5 8 - - -
15/01:00am - - - - - SW 9 15 5 8 - - -
15/12:30am - - - - - W 11 17 6 9 - - -
15/12:00am - - - - - WNW 9 19 5 10 - - -
 
Date/Time
EST
Temp
°C
App
Temp
°C
Dew
Point
Rel
Hum
%
Delta-T
°C
Wind Press
QNH
hPa
Press
MSL
hPa
Rain
since 9 am
mm
Dir
 
Spd
km/h
Gust
km/h
Spd
kts
Gust
kts
14/11:30pm - - - - - WSW 11 15 6 8 - - -
14/11:00pm - - - - - W 11 17 6 9 - - -
14/10:30pm - - - - - WSW 11 15 6 8 - - -
14/10:00pm - - - - - W 11 17 6 9 - - -
14/09:30pm - - - - - WSW 7 15 4 8 - - -
14/09:00pm - - - - - W 7 11 4 6 - - -
14/08:30pm - - - - - WSW 9 15 5 8 - - -
14/08:00pm - - - - - WSW 11 15 6 8 - - -
14/07:30pm - - - - - WSW 13 19 7 10 - - -
14/07:00pm - - - - - SW 17 28 9 15 - - -
14/06:30pm - - - - - SW 17 30 9 16 - - -
14/06:00pm - - - - - SSW 17 26 9 14 - - -
14/05:30pm - - - - - SW 17 30 9 16 - - -
14/05:00pm - - - - - SW 15 28 8 15 - - -
14/04:30pm - - - - - SW 17 26 9 14 - - -
14/04:00pm - - - - - SSW 17 22 9 12 - - -
14/03:30pm - - - - - SW 11 20 6 11 - - -
14/03:00pm - - - - - SSW 13 19 7 10 - - -
14/02:30pm - - - - - SSW 19 33 10 18 - - -
14/02:00pm - - - - - SSW 19 32 10 17 - - -
14/01:30pm - - - - - SSW 17 28 9 15 - - -
14/01:00pm - - - - - SSW 15 26 8 14 - - -
14/12:30pm - - - - - SSW 15 28 8 15 - - -
14/12:00pm - - - - - S 20 39 11 21 - - -
14/11:30am - - - - - S 15 30 8 16 - - -
14/11:00am - - - - - SSW 20 33 11 18 - - -

Other Formats:

Comma delimited format used in spreadsheet applications
http://www.bom.gov.au/fwo/IDN60801/IDN60801.95768.axf

JavaScript Object Notation format (JSON) in row-major order
http://www.bom.gov.au/fwo/IDN60801/IDN60801.95768.json